Tiempo atmosférico en la estación meteorológica de Puebla De Obando, Badajoz (392 m.)



Fecha
DESCASC
Temp. máxima en grados centígrados (hora)
DESCASC
Temp. mínima en grados centígrados (hora)
DESCASC
Temp. media en grados centígrados
DESCASC
Racha de viento máxima en m/sg (hora)
DESCASC
Velocidad máxima media en intervalos de 10 minutos(hora)
DESCASC
Precipitaciones diarias en mm
DESCASC
Precipitaciones de 00:00 a 06:00 en mm
DESCASC
Precipitaciones de 06:00 a 12:00 en mm
DESCASC
Precipitaciones de 12:00 a 18:00 en mm
DESCASC
Precipitaciones de 18:00 a 24:00 en mm
DESCASC
18-08-2019 34.1 (17:10) 12.1 (08:00) 23.1 9.44 (17:40) 6.39 (19:40) 0 0 0 0 0
17-08-2019 37 (17:50) 12.9 (08:00) 24.9 8.61 (16:10) 5 (18:10) 0 0 0 0 0
16-08-2019 37.6 (16:40) 21.7 (07:10) 29.6 9.72 (18:10) 6.11 (19:30) 0 0 0 0 0
15-08-2019 37.5 (17:10) 21.5 (00:00) 29.5 8.89 (17:20) 4.72 (22:30) 0 0 0 0 0
14-08-2019 35.9 (17:30) 18.3 (00:00) 27.1 8.61 (22:40) 4.72 (23:00) 0 0 0 0 0
13-08-2019 34 (17:30) 15.4 (00:00) 24.7 8.06 (14:50) 4.44 (02:40) 0 0 0 0 0
12-08-2019 29.7 (17:20) 14.1 (00:00) 21.9 10.56 (11:30) 6.94 (06:30) 0 0 0 0 0
11-08-2019 28 (18:20) 13.8 (00:00) 20.9 11.11 (23:00) 6.67 (23:00) 0 0 0 0 0
10-08-2019 31.8 (18:10) 14.6 (00:00) 23.2 9.44 (20:50) 6.67 (20:50) 0 0 0 0 0
09-08-2019 27.9 (14:10) 20.2 (00:00) 24.1 10 (14:20) 6.67 (14:10) 0 0 0 0 0
08-08-2019 33.1 (17:00) 16.5 (00:00) 24.8 11.11 (17:20) 6.94 (18:50) 0 0 0 0 0
07-08-2019 29.1 (19:40) 17.7 (00:00) 23.4 7.78 (03:10) 5.56 (03:10) 0 0 0 0 0
06-08-2019 34.5 (17:50) 14.6 (00:00) 24.6 13.61 (18:20) 6.11 (19:30) 0 0 0 0 0
05-08-2019 34.9 (18:00) 11.5 (00:00) 23.2 10.28 (15:10) 5.28 (20:40) 0 0 0 0 0
04-08-2019 35.1 (17:10) 14.1 (00:00) 24.6 8.89 (19:10) 6.39 (20:20) 0 0 0 0 0
03-08-2019 35 (18:10) 14.3 (00:00) 24.7 9.17 (18:40) 5 (22:10) 0 0 0 0 0
02-08-2019 34.8 (18:50) 10.4 (00:00) 22.6 6.94 (17:10) 3.61 (23:30) 0 0 0 0 0
01-08-2019 34.4 (17:20) 13.4 (00:00) 23.9 10.56 (19:00) 6.39 (20:20) 0 0 0 0 0
31-07-2019 35.4 (18:00) 16.1 (00:00) 25.8 9.72 (16:10) 5.56 (18:10) 0 0 0 0 0
30-07-2019 31.4 (18:10) 14.6 (00:00) 23 11.11 (08:00) 8.33 (07:50) 0 0 0 0 0
29-07-2019 31.5 (17:30) 10.9 (00:00) 21.2 12.22 (14:50) 7.22 (19:50) 0 0 0 0 0
28-07-2019 32.1 (17:30) 14.3 (00:00) 23.2 7.22 (23:10) 4.72 (23:10) 0 0 0 0 0
27-07-2019 27.5 (18:30) 14.5 (00:00) 21 11.94 (17:50) 7.22 (18:50) 0.4 0 0 0.4 0
26-07-2019 29.1 (17:30) 14.1 (00:00) 21.6 12.22 (16:50) 7.22 (18:40) 0 0 0 0 0
25-07-2019 33.6 (18:00) 16.3 (00:00) 24.9 10.28 (18:20) 6.94 (18:20) 0 0 0 0 0
24-07-2019 37.4 (17:00) 18.6 (00:00) 28 9.72 (20:30) 6.11 (20:30) 0 0 0 0 0
23-07-2019 36.5 (17:40) 20.1 (00:00) 28.3 9.17 (15:40) 5.56 (16:30) 0 0 0 0 0
22-07-2019 38.9 (17:20) 19.4 (00:00) 29.2 8.06 (18:10) 5 (23:10) 0 0 0 0 0
21-07-2019 38.6 (17:30) 15.7 (00:00) 27.1 7.5 (16:20) 4.17 (15:40) 0 0 0 0 0

Gráficas

Temp. máximas Temp. mínimas Temp. medias Precipitaciones Rachas de viento máximas Velocidades máximas media en intervalos de 10 minutos

Datos horarios

Fecha y hora oficial Temperatura (ºC) Velocidad del viento (km/h) Dirección del viento Racha (km/h) Dirección de racha Precipitación (mm) Presión (hPa) Tendencia (hPa) Humedad (%)
2019-08-19 23:00:00 23.7 13 Noroeste 26 Noroeste 0 -- -- 36
2019-08-19 22:00:00 25 16 Noroeste 28 Oeste 0 -- -- 34
2019-08-19 21:00:00 27.5 17 Oeste 28 Oeste 0 -- -- 25
2019-08-19 20:00:00 29.2 19 Oeste 31 Oeste 0 -- -- 20
2019-08-19 19:00:00 31.4 19 Oeste 32 Oeste 0 -- -- 21
2019-08-19 18:00:00 31.7 13 Sudoeste 36 Sudoeste 0 -- -- 23
2019-08-19 17:00:00 32.2 12 Oeste 27 Sudoeste 0 -- -- 21
2019-08-19 16:00:00 31.8 8 Sudoeste 23 Noroeste 0 -- -- 21
2019-08-19 15:00:00 30.3 10 Oeste 23 Noroeste 0 -- -- 27
2019-08-19 14:00:00 28.4 9 Oeste 20 Oeste 0 -- -- 36
2019-08-19 13:00:00 26.9 8 Oeste 18 Oeste 0 -- -- 40
2019-08-19 12:00:00 24.8 5 Oeste 14 Oeste 0 -- -- 48
2019-08-19 11:00:00 22.9 4 Oeste 13 Oeste 0 -- -- 56
2019-08-19 10:00:00 20.4 4 Oeste 10 Oeste 0 -- -- 62
2019-08-19 09:00:00 16.7 2 Nordeste 10 Sudeste 0 -- -- 79
2019-08-19 08:00:00 14.7 2 Oeste 10 Noroeste 0 -- -- 84
2019-08-19 07:00:00 15.1 8 Oeste 15 Oeste 0 -- -- 87
2019-08-19 06:00:00 15.7 6 Noroeste 12 Noroeste 0 -- -- 86
2019-08-19 05:00:00 16.9 13 Noroeste 17 Noroeste 0 -- -- 81
2019-08-19 04:00:00 17.6 8 Oeste 15 Noroeste 0 -- -- 82
2019-08-19 03:00:00 18.6 9 Noroeste 11 Noroeste 0 -- -- 79
2019-08-19 02:00:00 19.8 10 Noroeste 14 Oeste 0 -- -- 78
2019-08-19 01:00:00 21 13 Noroeste 24 Noroeste 0 -- -- 74
2019-08-19 00:00:00 22.9 17 Noroeste 25 Noroeste 0 -- -- 67
2019-08-18 23:00:00 24.4 13 Noroeste 26 Noroeste 0 -- -- 63
2019-08-18 22:00:00 26 18 Noroeste 30 Noroeste 0 -- -- 57
2019-08-18 21:00:00 28.7 18 Noroeste 34 Noroeste 0 -- -- 46
2019-08-18 20:00:00 31.6 18 Noroeste 32 Oeste 0 -- -- 37
2019-08-18 19:00:00 32.6 17 Noroeste 32 Noroeste 0 -- -- 33
2019-08-18 18:00:00 33.7 19 Noroeste 34 Noroeste 0 -- -- 27
2019-08-18 17:00:00 33.9 17 Noroeste 31 Oeste 0 -- -- 26
2019-08-18 16:00:00 32.9 14 Noroeste 30 Oeste 0 -- -- 29
2019-08-18 15:00:00 31.6 11 Oeste 26 Oeste 0 -- -- 32
2019-08-18 14:00:00 30.9 13 Noroeste 27 Oeste 0 -- -- 33
2019-08-18 13:00:00 29.1 10 Noroeste 21 Oeste 0 -- -- 39
2019-08-18 12:00:00 26.9 10 Oeste 20 Oeste 0 -- -- 45
2019-08-18 11:00:00 23.3 7 Oeste 15 Oeste 0 -- -- 58
2019-08-18 10:00:00 19.9 5 Sudeste 9 Este 0 -- -- 75
2019-08-18 09:00:00 15.8 4 Este 11 Sudeste 0 -- -- 94
2019-08-18 08:00:00 12.1 3 Sudeste 6 Noroeste 0 -- -- 91
2019-08-18 07:00:00 13.2 0 Calma 7 Este 0 -- -- 88
2019-08-18 06:00:00 14 4 Este 7 Sudeste 0 -- -- 83
2019-08-18 05:00:00 16.1 3 Este 8 Sudoeste 0 -- -- 78
2019-08-18 04:00:00 18.7 4 Noroeste 9 Oeste 0 -- -- 64
2019-08-18 03:00:00 20.2 2 Oeste 13 Oeste 0 -- -- 59
2019-08-18 02:00:00 22.3 12 Oeste 16 Oeste 0 -- -- 52
2019-08-18 01:00:00 25.2 12 Noroeste 20 Noroeste 0 -- -- 41
2019-08-18 00:00:00 26.7 13 Noroeste 24 Noroeste 0 -- -- 43
2019-08-17 23:00:00 27.3 11 Noroeste 14 Noroeste 0 -- -- 32
2019-08-17 22:00:00 28.4 6 Noroeste 18 Oeste 0 -- -- 22
2019-08-17 21:00:00 33.5 14 Oeste 29 Oeste 0 -- -- 18
2019-08-17 20:00:00 35.4 15 Oeste 26 Oeste 0 -- -- 17
2019-08-17 19:00:00 36.4 12 Oeste 30 Oeste 0 -- -- 16
2019-08-17 18:00:00 36.7 13 Oeste 30 Sudoeste 0 -- -- 12
2019-08-17 17:00:00 36.9 14 Oeste 31 Sudoeste 0 -- -- 13
2019-08-17 16:00:00 35.3 14 Sudoeste 28 Sudoeste 0 -- -- 16
2019-08-17 15:00:00 34.3 14 Oeste 24 Oeste 0 -- -- 20
2019-08-17 14:00:00 32.5 14 Sudoeste 22 Oeste 0 -- -- 27
2019-08-17 13:00:00 30.6 9 Sudoeste 23 Sudoeste 0 -- -- 29
2019-08-17 12:00:00 28.9 9 Sudoeste 13 Sudoeste 0 -- -- 35
2019-08-17 11:00:00 26.8 7 Sur 11 Sudeste 0 -- -- 39
2019-08-17 10:00:00 23.4 6 Sudeste 10 Sudeste 0 -- -- 52
2019-08-17 09:00:00 18.2 4 Sur 5 Sudeste 0 -- -- 66
2019-08-17 08:00:00 12.9 6 Sudeste 9 Sudeste 0 -- -- 71
2019-08-17 07:00:00 14.1 0 Calma 4 Sudeste 0 -- -- 78
2019-08-17 06:00:00 14.7 5 Sudeste 6 Sudeste 0 -- -- 70
2019-08-17 05:00:00 15.6 2 Sudeste 5 Este 0 -- -- 61
2019-08-17 04:00:00 16.7 2 Este 6 Sur 0 -- -- 59
2019-08-17 03:00:00 19 0 Calma 9 Oeste 0 -- -- 54
2019-08-17 02:00:00 22.9 9 Noroeste 12 Oeste 0 -- -- 44
2019-08-17 01:00:00 24.7 10 Noroeste 15 Noroeste 0 -- -- 40
2019-08-17 00:00:00 25.4 11 Oeste 14 Oeste 0 -- -- 38
2019-08-16 23:00:00 27.2 9 Noroeste 16 Oeste 0 -- -- 36
2019-08-16 22:00:00 30.5 13 Oeste 28 Oeste 0 -- -- 31
2019-08-16 21:00:00 33.8 18 Oeste 28 Oeste 0 -- -- 26
2019-08-16 20:00:00 36.1 19 Oeste 32 Oeste 0 -- -- 22
2019-08-16 19:00:00 37 18 Oeste 35 Oeste 0 -- -- 23
2019-08-16 18:00:00 37.1 14 Oeste 31 Oeste 0 -- -- 25
2019-08-16 17:00:00 37.2 16 Oeste 29 Oeste 0 -- -- 23
2019-08-16 16:00:00 36.8 16 Oeste 28 Oeste 0 -- -- 24
2019-08-16 15:00:00 35.8 13 Sudoeste 30 Oeste 0 -- -- 27
2019-08-16 14:00:00 34.6 14 Sudoeste 27 Sudoeste 0 -- -- 32
2019-08-16 13:00:00 33.8 10 Oeste 18 Oeste 0 -- -- 34
2019-08-16 12:00:00 31.9 5 Oeste 15 Oeste 0 -- -- 37
2019-08-16 11:00:00 29.7 5 Noroeste 12 Noroeste 0 -- -- 41
2019-08-16 10:00:00 27.2 4 Nordeste 12 Noroeste 0 -- -- 49
2019-08-16 09:00:00 23.9 7 Noroeste 13 Oeste 0 -- -- 57
2019-08-16 08:00:00 21.8 8 Noroeste 17 Oeste 0 -- -- 63
2019-08-16 07:00:00 21.9 8 Noroeste 17 Noroeste 0 -- -- 61
2019-08-16 06:00:00 22.9 12 Noroeste 17 Noroeste 0 -- -- 58
2019-08-16 05:00:00 23.4 8 Noroeste 14 Noroeste 0 -- -- 55
2019-08-16 04:00:00 23.4 10 Oeste 17 Noroeste 0 -- -- 53
2019-08-16 03:00:00 24.6 9 Oeste 22 Norte 0 -- -- 49
2019-08-16 02:00:00 26.7 16 Norte 24 Norte 0 -- -- 44
2019-08-16 01:00:00 27.6 13 Norte 23 Noroeste 0 -- -- 40
2019-08-16 00:00:00 28.5 13 Noroeste 22 Noroeste 0 -- -- 36
2019-08-15 23:00:00 29.7 15 Noroeste 28 Noroeste 0 -- -- 34
2019-08-15 22:00:00 30.5 3 Noroeste 12 Noroeste 0 -- -- 25
2019-08-15 21:00:00 34.8 7 Norte 17 Noroeste 0 -- -- 20
2019-08-15 20:00:00 36.5 9 Norte 18 Norte 0 -- -- 20
2019-08-15 19:00:00 37.3 5 Norte 21 Noroeste 0 -- -- 20
2019-08-15 18:00:00 37.3 12 Norte 32 Norte 0 -- -- 21
2019-08-15 17:00:00 37.3 13 Norte 29 Oeste 0 -- -- 22
2019-08-15 16:00:00 37 13 Noroeste 26 Noroeste 0 -- -- 24
2019-08-15 15:00:00 36.5 14 Oeste 27 Oeste 0 -- -- 25
2019-08-15 14:00:00 35.8 11 Oeste 22 Oeste 0 -- -- 26
2019-08-15 13:00:00 34.7 5 Sur 18 Noroeste 0 -- -- 30
2019-08-15 12:00:00 32.3 7 Norte 18 Norte 0 -- -- 36
2019-08-15 11:00:00 29.8 9 Nordeste 15 Nordeste 0 -- -- 42
2019-08-15 10:00:00 26.6 13 Norte 18 Norte 0 -- -- 51
2019-08-15 09:00:00 24.6 7 Noroeste 17 Norte 0 -- -- 59
2019-08-15 08:00:00 22.7 9 Norte 15 Norte 0 -- -- 65
2019-08-15 07:00:00 21.8 8 Norte 13 Norte 0 -- -- 67
2019-08-15 06:00:00 23.3 9 Norte 19 Norte 0 -- -- 62
2019-08-15 05:00:00 23.8 12 Noroeste 20 Norte 0 -- -- 59
2019-08-15 04:00:00 24.1 10 Norte 18 Norte 0 -- -- 57
2019-08-15 03:00:00 24.9 13 Norte 18 Norte 0 -- -- 54
2019-08-15 02:00:00 25.7 13 Norte 22 Noroeste 0 -- -- 51
2019-08-15 01:00:00 26.7 15 Noroeste 21 Noroeste 0 -- -- 46
2019-08-15 00:00:00 27 14 Noroeste 24 Noroeste 0 -- -- 43
2019-08-14 23:00:00 28 17 Noroeste 31 Noroeste 0 -- -- 35
2019-08-14 22:00:00 28.4 4 Oeste 8 Oeste 0 -- -- 23
2019-08-14 21:00:00 33.1 6 Norte 18 Norte 0 -- -- 19
2019-08-14 20:00:00 34.9 6 Norte 30 Noroeste 0 -- -- 17
2019-08-14 19:00:00 35.5 7 Nordeste 23 Norte 0 -- -- 17
2019-08-14 18:00:00 35.8 9 Norte 26 Noroeste 0 -- -- 17
2019-08-14 17:00:00 35.7 11 Noroeste 26 Norte 0 -- -- 17
2019-08-14 16:00:00 35.1 12 Noroeste 29 Norte 0 -- -- 17
2019-08-14 15:00:00 34.4 10 Noroeste 22 Noroeste 0 -- -- 18
2019-08-14 14:00:00 34.1 10 Oeste 23 Oeste 0 -- -- 18
2019-08-14 13:00:00 32.8 4 Norte 17 Nordeste 0 -- -- 19
2019-08-14 12:00:00 30.8 8 Nordeste 15 Norte 0 -- -- 21
2019-08-14 11:00:00 28 6 Nordeste 17 Norte 0 -- -- 26
2019-08-14 10:00:00 24.7 9 Norte 15 Norte 0 -- -- 30
2019-08-14 09:00:00 23 4 Nordeste 21 Norte 0 -- -- 33
2019-08-14 08:00:00 20.3 9 Norte 16 Norte 0 -- -- 36
2019-08-14 07:00:00 20.3 9 Norte 17 Norte 0 -- -- 35
2019-08-14 06:00:00 19.4 10 Norte 13 Norte 0 -- -- 33
2019-08-14 05:00:00 19.4 7 Noroeste 13 Norte 0 -- -- 33
2019-08-14 04:00:00 20.8 12 Norte 14 Norte 0 -- -- 30
2019-08-14 03:00:00 21.3 12 Norte 15 Norte 0 -- -- 29
2019-08-14 02:00:00 22.2 7 Norte 14 Norte 0 -- -- 27
2019-08-14 01:00:00 21.8 9 Norte 14 Norte 0 -- -- 26
2019-08-14 00:00:00 22.7 6 Norte 8 Norte 0 -- -- 25
2019-08-13 23:00:00 24.2 6 Norte 10 Norte 0 -- -- 22
2019-08-13 22:00:00 27.3 8 Norte 18 Norte 0 -- -- 19
2019-08-13 21:00:00 30.2 10 Norte 24 Norte 0 -- -- 18
2019-08-13 20:00:00 32.3 11 Noroeste 24 Noroeste 0 -- -- 17
2019-08-13 19:00:00 33 10 Norte 24 Norte 0 -- -- 17
2019-08-13 18:00:00 33.4 13 Nordeste 26 Noroeste 0 -- -- 16
2019-08-13 17:00:00 33.7 9 Sudoeste 17 Sudoeste 0 -- -- 15
2019-08-13 16:00:00 32.8 11 Norte 22 Nordeste 0 -- -- 14
2019-08-13 15:00:00 32 10 Noroeste 29 Noroeste 0 -- -- 16
2019-08-13 14:00:00 31.4 8 Oeste 19 Norte 0 -- -- 18
2019-08-13 13:00:00 30.4 8 Noroeste 17 Norte 0 -- -- 20
2019-08-13 12:00:00 27.4 8 Norte 15 Nordeste 0 -- -- 24
2019-08-13 11:00:00 25.4 9 Norte 17 Norte 0 -- -- 28
2019-08-13 10:00:00 21.9 10 Norte 23 Norte 0 -- -- 33
2019-08-13 09:00:00 19.4 10 Norte 17 Norte 0 -- -- 36
2019-08-13 08:00:00 15.7 7 Noroeste 15 Noroeste 0 -- -- 45
2019-08-13 07:00:00 16.2 10 Noroeste 19 Norte 0 -- -- 40
2019-08-13 06:00:00 16.8 12 Noroeste 16 Noroeste 0 -- -- 37
2019-08-13 05:00:00 17.6 10 Noroeste 13 Noroeste 0 -- -- 35
2019-08-13 04:00:00 20 12 Norte 24 Norte 0 -- -- 31
2019-08-13 03:00:00 21.4 16 Norte 23 Norte 0 -- -- 28
2019-08-13 02:00:00 22.4 14 Norte 22 Norte 0 -- -- 26
2019-08-13 01:00:00 22.5 14 Norte 21 Norte 0 -- -- 26
2019-08-13 00:00:00 22.4 10 Norte 21 Norte 0 -- -- 27
2019-08-12 23:00:00 23.9 11 Norte 17 Norte 0 -- -- 23
2019-08-12 22:00:00 24.4 3 Norte 17 Nordeste 0 -- -- 17
2019-08-12 21:00:00 26.8 12 Nordeste 27 Nordeste 0 -- -- 15
2019-08-12 20:00:00 27.9 15 Nordeste 29 Nordeste 0 -- -- 15
2019-08-12 19:00:00 28.8 14 Nordeste 29 Norte 0 -- -- 15
2019-08-12 18:00:00 29.2 16 Norte 30 Nordeste 0 -- -- 15
2019-08-12 17:00:00 29.1 10 Norte 34 Norte 0 -- -- 19
2019-08-12 16:00:00 28.9 15 Nordeste 28 Nordeste 0 -- -- 22
2019-08-12 15:00:00 28.1 17 Nordeste 31 Norte 0 -- -- 21
2019-08-12 14:00:00 26.9 16 Norte 30 Nordeste 0 -- -- 25
2019-08-12 13:00:00 25.5 17 Nordeste 31 Norte 0 -- -- 30
2019-08-12 12:00:00 24.2 20 Nordeste 38 Norte 0 -- -- 32
2019-08-12 11:00:00 21.5 18 Norte 31 Nordeste 0 -- -- 39
2019-08-12 10:00:00 18.6 20 Norte 32 Norte 0 -- -- 48
2019-08-12 09:00:00 16.4 16 Norte 29 Norte 0 -- -- 57
2019-08-12 08:00:00 14.5 19 Norte 32 Norte 0 -- -- 65
2019-08-12 07:00:00 14.2 20 Norte 35 Norte 0 -- -- 67
2019-08-12 06:00:00 14.3 25 Norte 37 Norte 0 -- -- 67
2019-08-12 05:00:00 14.9 14 Norte 29 Norte 0 -- -- 65
2019-08-12 04:00:00 15.5 16 Norte 27 Norte 0 -- -- 63
2019-08-12 03:00:00 16.2 15 Norte 30 Norte 0 -- -- 61
2019-08-12 02:00:00 17 18 Norte 33 Norte 0 -- -- 59
2019-08-12 01:00:00 17.8 20 Norte 32 Noroeste 0 -- -- 57
2019-08-12 00:00:00 19.2 24 Noroeste 37 Noroeste 0 -- -- 51
2019-08-11 23:00:00 20.9 24 Noroeste 40 Noroeste 0 -- -- 44
2019-08-11 22:00:00 22.7 19 Noroeste 33 Noroeste 0 -- -- 35
2019-08-11 21:00:00 24.9 17 Noroeste 32 Noroeste 0 -- -- 30
2019-08-11 20:00:00 26.6 17 Noroeste 31 Noroeste 0 -- -- 26
2019-08-11 19:00:00 27.1 20 Noroeste 32 Noroeste 0 -- -- 23
2019-08-11 18:00:00 27.8 17 Noroeste 32 Noroeste 0 -- -- 22
2019-08-11 17:00:00 27.3 23 Norte 33 Norte 0 -- -- 24
2019-08-11 16:00:00 27.2 16 Noroeste 32 Norte 0 -- -- 27
2019-08-11 15:00:00 26.6 15 Norte 37 Noroeste 0 -- -- 27
2019-08-11 14:00:00 25.8 10 Oeste 32 Noroeste 0 -- -- 32
2019-08-11 13:00:00 23.6 14 Norte 32 Noroeste 0 -- -- 37
2019-08-11 12:00:00 22.2 21 Noroeste 30 Noroeste 0 -- -- 42
2019-08-11 11:00:00 21.3 18 Noroeste 28 Noroeste 0 -- -- 48
2019-08-11 10:00:00 17.6 14 Noroeste 21 Noroeste 0 -- -- 61
2019-08-11 09:00:00 15.8 13 Noroeste 19 Oeste 0 -- -- 68
2019-08-11 08:00:00 14 10 Noroeste 14 Noroeste 0 -- -- 76
2019-08-11 07:00:00 14.1 2 Norte 9 Oeste 0 -- -- 77
2019-08-11 06:00:00 15.6 7 Oeste 15 Noroeste 0 -- -- 70
2019-08-11 05:00:00 16.9 11 Oeste 22 Oeste 0 -- -- 65
2019-08-11 04:00:00 18.2 7 Oeste 16 Noroeste 0 -- -- 60
2019-08-11 03:00:00 19.1 10 Noroeste 21 Oeste 0 -- -- 57
2019-08-11 02:00:00 19.8 15 Noroeste 29 Oeste 0 -- -- 54
2019-08-11 01:00:00 20.5 14 Noroeste 26 Noroeste 0 -- -- 53
2019-08-11 00:00:00 21.3 14 Noroeste 31 Norte 0 -- -- 54
2019-08-10 23:00:00 23.3 22 Noroeste 32 Norte 0 -- -- 48
2019-08-10 22:00:00 25 15 Noroeste 26 Oeste 0 -- -- 38
2019-08-10 21:00:00 26.5 23 Oeste 34 Oeste 0 -- -- 35
2019-08-10 20:00:00 28.9 13 Oeste 25 Noroeste 0 -- -- 26
2019-08-10 19:00:00 30.7 12 Oeste 23 Oeste 0 -- -- 26
2019-08-10 18:00:00 31.7 7 Oeste 23 Oeste 0 -- -- 21
2019-08-10 17:00:00 31.2 9 Noroeste 24 Oeste 0 -- -- 21
2019-08-10 16:00:00 30.3 6 Este 22 Noroeste 0 -- -- 22
2019-08-10 15:00:00 29.5 12 Oeste 19 Oeste 0 -- -- 24
2019-08-10 14:00:00 28.3 8 Sudoeste 20 Sudoeste 0 -- -- 27
2019-08-10 13:00:00 27 9 Sudoeste 20 Sudoeste 0 -- -- 33
2019-08-10 12:00:00 24.9 6 Oeste 19 Noroeste 0 -- -- 42
2019-08-10 11:00:00 22.5 4 Noroeste 14 Noroeste 0 -- -- 53
2019-08-10 10:00:00 20.5 3 Norte 12 Oeste 0 -- -- 63
2019-08-10 09:00:00 18 5 Oeste 9 Noroeste 0 -- -- 74
2019-08-10 08:00:00 14.6 3 Norte 10 Oeste 0 -- -- 85
2019-08-10 07:00:00 14.6 5 Noroeste 9 Oeste 0 -- -- 86
2019-08-10 06:00:00 14.9 0 Calma 7 Oeste 0 -- -- 86
2019-08-10 05:00:00 16 3 Oeste 13 Noroeste 0 -- -- 80
2019-08-10 04:00:00 17.1 4 Noroeste 15 Norte 0 -- -- 76
2019-08-10 03:00:00 17.4 5 Oeste 17 Noroeste 0 -- -- 75
2019-08-10 02:00:00 19.1 8 Noroeste 19 Noroeste 0 -- -- 69
2019-08-10 01:00:00 20.2 11 Noroeste 14 Noroeste 0 -- -- 67
2019-08-10 00:00:00 21 11 Noroeste 17 Noroeste 0 -- -- 65
2019-08-09 23:00:00 22.1 12 Noroeste 18 Noroeste 0 -- -- 60
2019-08-09 22:00:00 23 9 Noroeste 15 Noroeste 0 -- -- 53
2019-08-09 21:00:00 25.2 11 Noroeste 22 Noroeste 0 -- -- 54
2019-08-09 20:00:00 25.8 10 Noroeste 20 Oeste 0 -- -- 57
2019-08-09 19:00:00 25.4 15 Noroeste 24 Noroeste 0 -- -- 57
2019-08-09 18:00:00 24.7 15 Noroeste 26 Norte 0 -- -- 57
2019-08-09 17:00:00 25.2 13 Norte 29 Noroeste 0 -- -- 61
2019-08-09 16:00:00 25.2 16 Norte 29 Oeste 0 -- -- 65
2019-08-09 15:00:00 26.6 24 Oeste 36 Oeste 0 -- -- 67
2019-08-09 14:00:00 26.9 19 Sudoeste 34 Sudoeste 0 -- -- 68
2019-08-09 13:00:00 25.5 17 Sudoeste 28 Sudoeste 0 -- -- 71
2019-08-09 12:00:00 23.5 14 Sudoeste 27 Sudoeste 0 -- -- 82
2019-08-09 11:00:00 22.9 19 Sudoeste 27 Sudoeste 0 -- -- 83
2019-08-09 10:00:00 21.3 14 Sudoeste 26 Sudoeste 0 -- -- 90
2019-08-09 09:00:00 21.3 15 Sudoeste 24 Sudoeste 0 -- -- 89
2019-08-09 08:00:00 20.8 10 Sudoeste 21 Sudoeste 0 -- -- 89
2019-08-09 07:00:00 20.3 9 Sudoeste 15 Sudoeste 0 -- -- 91
2019-08-09 06:00:00 20.5 7 Sudoeste 26 Oeste 0 -- -- 91
2019-08-09 05:00:00 20.9 14 Oeste 26 Oeste 0 -- -- 85
2019-08-09 04:00:00 20.8 17 Oeste 27 Oeste 0 -- -- 86
2019-08-09 03:00:00 20.8 15 Oeste 23 Oeste 0 -- -- 85
2019-08-09 02:00:00 21.7 9 Oeste 17 Oeste 0 -- -- 80
2019-08-09 01:00:00 22.9 10 Noroeste 17 Oeste 0 -- -- 75
2019-08-09 00:00:00 24.2 10 Noroeste 20 Noroeste 0 -- -- 68
2019-08-08 23:00:00 25.9 15 Oeste 31 Oeste 0 -- -- 58
2019-08-08 22:00:00 27.7 17 Oeste 33 Oeste 0 -- -- 51
2019-08-08 21:00:00 30 21 Oeste 33 Oeste 0 -- -- 44
2019-08-08 20:00:00 31.7 25 Oeste 36 Oeste 0 -- -- 38
2019-08-08 19:00:00 32.4 20 Oeste 39 Oeste 0 -- -- 39
2019-08-08 18:00:00 32.8 18 Sudoeste 40 Oeste 0 -- -- 38
2019-08-08 17:00:00 33.1 23 Sudoeste 37 Oeste 0 -- -- 36
2019-08-08 16:00:00 32.3 18 Oeste 31 Oeste 0 -- -- 40
2019-08-08 15:00:00 31 14 Sudoeste 30 Sudoeste 0 -- -- 43
2019-08-08 14:00:00 29.5 14 Sudoeste 27 Sudoeste 0 -- -- 45
2019-08-08 13:00:00 28.5 14 Sudoeste 24 Sur 0 -- -- 50
2019-08-08 12:00:00 26.7 12 Sudoeste 22 Sudoeste 0 -- -- 59
2019-08-08 11:00:00 26 3 Oeste 14 Sudeste 0 -- -- 59
2019-08-08 10:00:00 24.1 4 Sudeste 8 Sudeste 0 -- -- 63
2019-08-08 09:00:00 21.4 2 Sudeste 6 Sudeste 0 -- -- 72
2019-08-08 08:00:00 16.9 0 Calma 5 Noroeste 0 -- -- 83
2019-08-08 07:00:00 16.7 3 Oeste 8 Sudoeste 0 -- -- 83
2019-08-08 06:00:00 17.5 0 Calma 6 Noroeste 0 -- -- 77
2019-08-08 05:00:00 18.6 4 Norte 9 Noroeste 0 -- -- 74
2019-08-08 04:00:00 20.4 5 Noroeste 12 Noroeste 0 -- -- 70
2019-08-08 03:00:00 21.2 10 Noroeste 18 Oeste 0 -- -- 68
2019-08-08 02:00:00 22.6 10 Oeste 17 Sudoeste 0 -- -- 60
2019-08-08 01:00:00 22.9 9 Sudoeste 15 Sudoeste 0 -- -- 58
2019-08-08 00:00:00 21.2 0 Calma 7 Noroeste 0 -- -- 63
2019-08-07 23:00:00 22.2 0 Calma 14 Sudoeste 0 -- -- 60
2019-08-07 22:00:00 24.1 9 Sudoeste 21 Sudoeste 0 -- -- 54
2019-08-07 21:00:00 26.3 15 Sudoeste 26 Sudoeste 0 -- -- 48
2019-08-07 20:00:00 28.6 12 Sudoeste 21 Sudoeste 0 -- -- 45
2019-08-07 19:00:00 28 12 Sudoeste 21 Sudoeste 0 -- -- 46
2019-08-07 18:00:00 28.7 7 Oeste 20 Oeste 0 -- -- 43
2019-08-07 17:00:00 27.2 10 Noroeste 18 Oeste 0 -- -- 46
2019-08-07 16:00:00 26 5 Noroeste 14 Oeste 0 -- -- 50
2019-08-07 15:00:00 24.8 5 Nordeste 15 Noroeste 0 -- -- 51
2019-08-07 14:00:00 24.1 11 Noroeste 20 Nordeste 0 -- -- 56
2019-08-07 13:00:00 24.1 12 Norte 21 Noroeste 0 -- -- 57
2019-08-07 12:00:00 22.7 10 Noroeste 16 Oeste 0 -- -- 62
2019-08-07 11:00:00 22 8 Oeste 15 Oeste 0 -- -- 69
2019-08-07 10:00:00 21.2 9 Oeste 14 Oeste 0 -- -- 76
2019-08-07 09:00:00 18.4 4 Sur 12 Oeste 0 -- -- 87
2019-08-07 08:00:00 17.8 6 Noroeste 27 Sudoeste 0 -- -- 89
2019-08-07 07:00:00 17.8 10 Oeste 15 Oeste 0 -- -- 89
2019-08-07 06:00:00 18 3 Sudoeste 16 Oeste 0 -- -- 87
2019-08-07 05:00:00 18.4 5 Sudoeste 14 Oeste 0 -- -- 85
2019-08-07 04:00:00 19.1 11 Oeste 28 Oeste 0 -- -- 81
2019-08-07 03:00:00 20.2 17 Oeste 26 Oeste 0 -- -- 72
2019-08-07 02:00:00 21.4 9 Oeste 18 Oeste 0 -- -- 67
2019-08-07 01:00:00 22.5 12 Oeste 16 Oeste 0 -- -- 63
2019-08-07 00:00:00 23.6 8 Noroeste 21 Oeste 0 -- -- 56
2019-08-06 23:00:00 24.7 17 Oeste 28 Oeste 0 -- -- 54
2019-08-06 22:00:00 26.4 16 Noroeste 28 Oeste 0 -- -- 51
2019-08-06 21:00:00 28.9 18 Oeste 31 Oeste 0 -- -- 42
2019-08-06 20:00:00 31 20 Oeste 31 Sudoeste 0 -- -- 36
2019-08-06 19:00:00 33 19 Oeste 49 Oeste 0 -- -- 30
2019-08-06 18:00:00 33.5 21 Oeste 37 Oeste 0 -- -- 29
2019-08-06 17:00:00 33.2 17 Oeste 33 Oeste 0 -- -- 28
2019-08-06 16:00:00 32.8 18 Oeste 30 Oeste 0 -- -- 31
2019-08-06 15:00:00 31.5 16 Oeste 28 Sudoeste 0 -- -- 37
2019-08-06 14:00:00 29.3 15 Sudoeste 27 Sudoeste 0 -- -- 44
2019-08-06 13:00:00 27.2 14 Oeste 26 Sudoeste 0 -- -- 50
2019-08-06 12:00:00 24.7 14 Sudoeste 22 Oeste 0 -- -- 59
2019-08-06 11:00:00 22.5 9 Sudoeste 17 Oeste 0 -- -- 68
2019-08-06 10:00:00 19.8 7 Sudoeste 18 Sur 0 -- -- 79
2019-08-06 09:00:00 16.7 9 Sur 18 Sur 0 -- -- 95
2019-08-06 08:00:00 15 4 Sur 14 Oeste 0 -- -- 96
2019-08-06 07:00:00 16.1 11 Oeste 16 Oeste 0 -- -- 95
2019-08-06 06:00:00 14.9 0 Calma 9 Oeste 0 -- -- 88
2019-08-06 05:00:00 15.1 0 Calma 7 Sudeste 0 -- -- 75
2019-08-06 04:00:00 15.8 4 Este 8 Sudeste 0 -- -- 66
2019-08-06 03:00:00 17.9 3 Noroeste 6 Noroeste 0 -- -- 63
2019-08-06 02:00:00 20 2 Sudeste 9 Oeste 0 -- -- 53
2019-08-06 01:00:00 21.7 3 Noroeste 12 Oeste 0 -- -- 50
2019-08-06 00:00:00 24.5 9 Noroeste 16 Oeste 0 -- -- 44
2019-08-05 23:00:00 26.8 12 Oeste 21 Oeste 0 -- -- 38
2019-08-05 22:00:00 29 13 Oeste 23 Oeste 0 -- -- 29
2019-08-05 21:00:00 32.1 17 Oeste 25 Oeste 0 -- -- 25
2019-08-05 20:00:00 33.8 15 Oeste 26 Oeste 0 -- -- 25
2019-08-05 19:00:00 34.6 15 Oeste 26 Oeste 0 -- -- 21
2019-08-05 18:00:00 34.9 11 Oeste 27 Oeste 0 -- -- 16
2019-08-05 17:00:00 34.4 13 Oeste 24 Oeste 0 -- -- 16
2019-08-05 16:00:00 33.4 14 Oeste 37 Sudoeste 0 -- -- 17
2019-08-05 15:00:00 32 11 Sudoeste 27 Oeste 0 -- -- 20
2019-08-05 14:00:00 30.1 14 Sudoeste 23 Oeste -- -- -- 28
2019-08-05 13:00:00 28.1 10 Sudoeste 18 Sudoeste 0 -- -- 35
2019-08-05 12:00:00 26.1 6 Sur 13 Sur 0 -- -- 43
2019-08-05 11:00:00 23.3 3 Oeste 7 Sudoeste 0 -- -- 54
2019-08-05 10:00:00 20.2 3 Sudeste 6 Este 0 -- -- 65
2019-08-05 09:00:00 16.3 2 Sudeste 4 Sudeste 0 -- -- 80
2019-08-05 08:00:00 12.1 2 Este 6 Sudeste 0 -- -- 90
2019-08-05 07:00:00 11.8 0 Calma 5 Sudeste 0 -- -- 93
2019-08-05 06:00:00 12.6 0 Calma 5 Este 0 -- -- 88
2019-08-05 05:00:00 13.9 0 Calma 6 Este 0 -- -- 81
2019-08-05 04:00:00 15.8 4 Sudeste 7 Este 0 -- -- 77
2019-08-05 03:00:00 16.1 0 Calma 4 Sur 0 -- -- 73
2019-08-05 02:00:00 18.2 3 Sudeste 10 Oeste 0 -- -- 65
2019-08-05 01:00:00 20.8 9 Oeste 15 Oeste 0 -- -- 57
2019-08-05 00:00:00 22.8 11 Noroeste 19 Oeste 0 -- -- 52
2019-08-04 23:00:00 25.1 13 Noroeste 22 Noroeste 0 -- -- 47
2019-08-04 22:00:00 27.4 17 Noroeste 30 Oeste 0 -- -- 42
2019-08-04 21:00:00 30.8 21 Oeste 32 Oeste 0 -- -- 35
2019-08-04 20:00:00 33.2 21 Oeste 32 Oeste 0 -- -- 27
2019-08-04 19:00:00 34.7 13 Oeste 30 Oeste 0 -- -- 22
2019-08-04 18:00:00 34.9 18 Oeste 31 Oeste 0 -- -- 22
2019-08-04 17:00:00 34.3 16 Oeste 27 Sudoeste 0 -- -- 23
2019-08-04 16:00:00 33.6 14 Oeste 27 Sudoeste 0 -- -- 29
2019-08-04 15:00:00 32.5 15 Oeste 25 Oeste 0 -- -- 34
2019-08-04 14:00:00 30.2 10 Oeste 21 Oeste 0 -- -- 42
2019-08-04 13:00:00 28.2 9 Noroeste 18 Sur 0 -- -- 47
2019-08-04 12:00:00 25.5 5 Sudoeste 14 Oeste 0 -- -- 55
2019-08-04 11:00:00 22.7 4 Oeste 13 Sudoeste 0 -- -- 66
2019-08-04 10:00:00 20.5 5 Sudoeste 10 Sur 0 -- -- 74
2019-08-04 09:00:00 17.9 7 Sudeste 9 Sudeste 0 -- -- 87
2019-08-04 08:00:00 14.4 0 Calma 4 Noroeste 0 -- -- 93
2019-08-04 07:00:00 14.2 0 Calma 8 Sudeste 0 -- -- 91
2019-08-04 06:00:00 14.7 5 Sudeste 8 Sudeste 0 -- -- 85
2019-08-04 05:00:00 16.1 4 Este 5 Oeste 0 -- -- 77
2019-08-04 04:00:00 18.1 4 Oeste 8 Noroeste 0 -- -- 74
2019-08-04 03:00:00 20.2 2 Este 13 Oeste 0 -- -- 65
2019-08-04 02:00:00 22.3 8 Oeste 16 Noroeste 0 -- -- 60
2019-08-04 01:00:00 24 12 Noroeste 17 Noroeste 0 -- -- 55
2019-08-04 00:00:00 25.2 10 Noroeste 19 Oeste 0 -- -- 51
2019-08-03 23:00:00 27.1 13 Noroeste 26 Oeste 0 -- -- 46
2019-08-03 22:00:00 29.5 15 Oeste 28 Sudoeste 0 -- -- 34
2019-08-03 21:00:00 32.3 13 Oeste 22 Oeste 0 -- -- 18
2019-08-03 20:00:00 33.9 11 Sudoeste 23 Oeste 0 -- -- 17
2019-08-03 19:00:00 34.2 16 Sudoeste 33 Oeste 0 -- -- 21
2019-08-03 18:00:00 34.4 15 Sudoeste 29 Sudoeste 0 -- -- 18
2019-08-03 17:00:00 34.5 13 Oeste 25 Sudoeste 0 -- -- 19
2019-08-03 16:00:00 33.7 10 Oeste 31 Sudoeste 0 -- -- 25
2019-08-03 15:00:00 32.9 11 Sudoeste 28 Sudoeste 0 -- -- 27
2019-08-03 14:00:00 31.6 11 Sudoeste 22 Sudoeste 0 -- -- 32
2019-08-03 13:00:00 29.7 11 Oeste 19 Oeste 0 -- -- 35
2019-08-03 12:00:00 27.3 9 Oeste 16 Oeste 0 -- -- 42
2019-08-03 11:00:00 24.7 8 Oeste 15 Sudoeste 0 -- -- 51
2019-08-03 10:00:00 22.1 12 Oeste 19 Oeste 0 -- -- 59
2019-08-03 09:00:00 19.2 12 Oeste 15 Oeste 0 -- -- 70
2019-08-03 08:00:00 14.9 0 Calma 6 Sudeste 0 -- -- 85
2019-08-03 07:00:00 14.4 3 Sudeste 8 Sudeste 0 -- -- 82
2019-08-03 06:00:00 15.4 0 Calma 8 Este 0 -- -- 80
2019-08-03 05:00:00 16.7 5 Sudeste 8 Este 0 -- -- 77
2019-08-03 04:00:00 19 4 Sudeste 7 Oeste 0 -- -- 68
2019-08-03 03:00:00 21.6 6 Noroeste 13 Noroeste 0 -- -- 61
2019-08-03 02:00:00 22.3 6 Oeste 13 Noroeste 0 -- -- 60
2019-08-03 01:00:00 23.7 8 Oeste 19 Noroeste 0 -- -- 54
2019-08-03 00:00:00 25.5 13 Noroeste 20 Noroeste 0 -- -- 51
2019-08-02 23:00:00 26.3 10 Noroeste 16 Oeste 0 -- -- 40
2019-08-02 22:00:00 28.4 9 Sudoeste 13 Sudoeste 0 -- -- 23
2019-08-02 21:00:00 32.2 10 Sudoeste 15 Sudoeste 0 -- -- 18
2019-08-02 20:00:00 34.6 5 Oeste 19 Oeste 0 -- -- 16
2019-08-02 19:00:00 34.7 6 Sudoeste 18 Sudoeste 0 -- -- 17
2019-08-02 18:00:00 34.5 8 Sudeste 25 Oeste 0 -- -- 18
2019-08-02 17:00:00 33.7 11 Norte 20 Sudoeste 0 -- -- 19
2019-08-02 16:00:00 33.4 8 Sur 19 Sur 0 -- -- 19
2019-08-02 15:00:00 31.8 7 Sudoeste 19 Sur 0 -- -- 24
2019-08-02 14:00:00 30.2 7 Sudoeste 18 Sudoeste 0 -- -- 28
2019-08-02 13:00:00 28.3 6 Sudoeste 13 Sur 0 -- -- 32
2019-08-02 12:00:00 25.5 6 Sudoeste 13 Noroeste 0 -- -- 42
2019-08-02 11:00:00 23.1 4 Sudeste 13 Sudeste 0 -- -- 53
2019-08-02 10:00:00 19.3 3 Este 7 Este 0 -- -- 68
2019-08-02 09:00:00 15.9 0 Calma 6 Este 0 -- -- 81
2019-08-02 08:00:00 11.9 0 Calma 10 Sudeste 0 -- -- 92
2019-08-02 07:00:00 10.4 5 Este 7 Sudeste 0 -- -- 87
2019-08-02 06:00:00 11.5 0 Calma 5 Sudeste 0 -- -- 81
2019-08-02 05:00:00 12.9 5 Sudeste 6 Sudeste 0 -- -- 72
2019-08-02 04:00:00 14 3 Este 5 Sudeste 0 -- -- 69
2019-08-02 03:00:00 16.7 2 Sudoeste 10 Noroeste 0 -- -- 61
2019-08-02 02:00:00 19.6 6 Noroeste 13 Oeste 0 -- -- 54
2019-08-02 01:00:00 20.5 10 Noroeste 13 Noroeste 0 -- -- 48
2019-08-02 00:00:00 22.5 9 Noroeste 15 Noroeste 0 -- -- 40
2019-08-01 23:00:00 25.2 12 Noroeste 26 Oeste 0 -- -- 33
2019-08-01 22:00:00 27.6 17 Oeste 30 Oeste 0 -- -- 29
2019-08-01 21:00:00 30.8 21 Oeste 32 Oeste 0 -- -- 25
2019-08-01 20:00:00 33.1 21 Oeste 33 Oeste 0 -- -- 22
2019-08-01 19:00:00 34 20 Oeste 38 Oeste 0 -- -- 21
2019-08-01 18:00:00 34.3 13 Oeste 30 Oeste 0 -- -- 23
2019-08-01 17:00:00 34.1 10 Sudoeste 30 Oeste 0 -- -- 23
2019-08-01 16:00:00 33.4 19 Oeste 31 Oeste 0 -- -- 25
2019-08-01 15:00:00 32.7 14 Oeste 27 Oeste 0 -- -- 28
2019-08-01 14:00:00 31.2 11 Noroeste 25 Oeste 0 -- -- 31
2019-08-01 13:00:00 29.1 12 Sudoeste 23 Oeste 0 -- -- 36
2019-08-01 12:00:00 27.1 11 Sudoeste 20 Sudoeste 0 -- -- 40
2019-08-01 11:00:00 24.9 6 Oeste 14 Oeste 0 -- -- 45
2019-08-01 10:00:00 22.3 3 Sudoeste 10 Sudeste 0 -- -- 51
2019-08-01 09:00:00 18.6 5 Sudeste 7 Sudeste 0 -- -- 62
2019-08-01 08:00:00 13.9 2 Este 8 Sudeste 0 -- -- 74
2019-08-01 07:00:00 14.1 3 Sudeste 8 Este 0 -- -- 73
2019-08-01 06:00:00 16 2 Este 5 Este 0 -- -- 66
2019-08-01 05:00:00 18.7 0 Calma 14 Oeste 0 -- -- 58
2019-08-01 04:00:00 20 11 Oeste 14 Oeste 0 -- -- 54
2019-08-01 03:00:00 21.5 11 Noroeste 13 Noroeste 0 -- -- 50
2019-08-01 02:00:00 22.1 6 Oeste 15 Oeste 0 -- -- 47
2019-08-01 01:00:00 23.8 11 Noroeste 20 Noroeste 0 -- -- 42
2019-08-01 00:00:00 26 15 Noroeste 23 Noroeste 0 -- -- 35
2019-07-31 23:00:00 26.7 13 Noroeste 24 Noroeste 0 -- -- 33
2019-07-31 22:00:00 27.7 13 Noroeste 28 Noroeste 0 -- -- 31
2019-07-31 21:00:00 30 10 Noroeste 23 Oeste 0 -- -- 20
2019-07-31 20:00:00 32.7 15 Oeste 29 Oeste 0 -- -- 15
2019-07-31 19:00:00 33.9 15 Oeste 33 Oeste 0 -- -- 15
2019-07-31 18:00:00 35.4 17 Oeste 30 Noroeste 0 -- -- 14
2019-07-31 17:00:00 34.9 10 Sudoeste 35 Oeste 0 -- -- 14
2019-07-31 16:00:00 34.3 17 Oeste 34 Oeste 0 -- -- 15
2019-07-31 15:00:00 32.9 15 Sudoeste 27 Sudoeste 0 -- -- 18
2019-07-31 14:00:00 31.8 8 Oeste 23 Sudoeste 0 -- -- 19
2019-07-31 13:00:00 30.6 10 Oeste 19 Oeste 0 -- -- 21
2019-07-31 12:00:00 29.1 6 Sur 12 Sur 0 -- -- 24
2019-07-31 11:00:00 26.3 5 Noroeste 8 Oeste 0 -- -- 29
2019-07-31 10:00:00 23.5 4 Norte 11 Noroeste 0 -- -- 34
2019-07-31 09:00:00 20 7 Oeste 11 Oeste 0 -- -- 43
2019-07-31 08:00:00 16.9 6 Oeste 16 Oeste 0 -- -- 50
2019-07-31 07:00:00 16.8 11 Noroeste 15 Noroeste 0 -- -- 48
2019-07-31 06:00:00 17.7 11 Noroeste 16 Noroeste 0 -- -- 41
2019-07-31 05:00:00 18.4 10 Noroeste 15 Noroeste 0 -- -- 36
2019-07-31 04:00:00 20.1 11 Noroeste 23 Norte 0 -- -- 31
2019-07-31 03:00:00 21.1 17 Norte 27 Norte 0 -- -- 29
2019-07-31 02:00:00 23 17 Norte 22 Noroeste 0 -- -- 26
2019-07-31 01:00:00 23.1 12 Norte 18 Norte 0 -- -- 26
2019-07-31 00:00:00 23.8 10 Norte 17 Norte 0 -- -- 25
2019-07-30 23:00:00 25.2 10 Norte 18 Norte 0 -- -- 23
2019-07-30 22:00:00 26.4 9 Norte 18 Norte 0 -- -- 22
2019-07-30 21:00:00 29.5 9 Norte 24 Norte 0 -- -- 18
2019-07-30 20:00:00 30.7 14 Norte 26 Norte 0 -- -- 16
2019-07-30 19:00:00 30.9 12 Nordeste 31 Noroeste 0 -- -- 16
2019-07-30 18:00:00 31.1 14 Norte 27 Norte 0 -- -- 18
2019-07-30 17:00:00 30.8 12 Nordeste 31 Norte 0 -- -- 19
2019-07-30 16:00:00 30.1 19 Norte 30 Nordeste 0 -- -- 20
2019-07-30 15:00:00 29.3 16 Norte 30 Norte 0 -- -- 21
2019-07-30 14:00:00 27.6 17 Norte 30 Noroeste 0 -- -- 24
2019-07-30 13:00:00 26.6 14 Norte 32 Norte 0 -- -- 27
2019-07-30 12:00:00 24.1 17 Norte 28 Norte 0 -- -- 31
2019-07-30 11:00:00 21.6 20 Norte 34 Noroeste 0 -- -- 37
2019-07-30 10:00:00 19 23 Norte 37 Norte 0 -- -- 46
2019-07-30 09:00:00 17 24 Norte 38 Noroeste 0 -- -- 52
2019-07-30 08:00:00 15.3 28 Norte 40 Norte 0 -- -- 59
2019-07-30 07:00:00 15.2 25 Norte 39 Norte 0 -- -- 59
2019-07-30 06:00:00 15.1 14 Norte 28 Norte 0 -- -- 64
2019-07-30 05:00:00 15.6 15 Norte 23 Noroeste 0 -- -- 63
2019-07-30 04:00:00 16.3 13 Norte 31 Norte 0 -- -- 60
2019-07-30 03:00:00 17.2 19 Norte 32 Norte 0 -- -- 57
2019-07-30 02:00:00 18.1 22 Norte 31 Noroeste 0 -- -- 56
2019-07-30 01:00:00 19.3 21 Norte 34 Norte 0 -- -- 50
2019-07-30 00:00:00 20.5 19 Norte 32 Noroeste 0 -- -- 48
2019-07-29 23:00:00 22.1 22 Noroeste 38 Noroeste 0 -- -- 42
2019-07-29 22:00:00 24.2 21 Noroeste 35 Noroeste 0 -- -- 35
2019-07-29 21:00:00 27.1 26 Noroeste 36 Oeste 0 -- -- 25
2019-07-29 20:00:00 29.4 26 Noroeste 37 Oeste 0 -- -- 23
2019-07-29 19:00:00 30.7 23 Noroeste 35 Noroeste 0 -- -- 20
2019-07-29 18:00:00 31.1 20 Noroeste 37 Norte 0 -- -- 22
2019-07-29 17:00:00 31.3 19 Noroeste 36 Noroeste 0 -- -- 27
2019-07-29 16:00:00 31.1 14 Noroeste 37 Oeste 0 -- -- 28
2019-07-29 15:00:00 30 15 Noroeste 44 Oeste 0 -- -- 32
2019-07-29 14:00:00 29.1 13 Noroeste 28 Noroeste 0 -- -- 37
2019-07-29 13:00:00 27.6 10 Noroeste 28 Sudoeste 0 -- -- 43
2019-07-29 12:00:00 25.6 8 Noroeste 18 Oeste 0 -- -- 41
2019-07-29 11:00:00 23.5 9 Noroeste 17 Noroeste 0 -- -- 43
2019-07-29 10:00:00 20.9 13 Oeste 18 Noroeste 0 -- -- 44
2019-07-29 09:00:00 17.6 7 Noroeste 12 Oeste 0 -- -- 54
2019-07-29 08:00:00 12 0 Calma 3 Sudeste 0 -- -- 77
2019-07-29 07:00:00 11.6 0 Calma 8 Sudeste 0 -- -- 79
2019-07-29 06:00:00 13.2 5 Oeste 6 Oeste 0 -- -- 69
2019-07-29 05:00:00 14.6 2 Norte 8 Oeste 0 -- -- 64
2019-07-29 04:00:00 15.9 3 Norte 9 Noroeste 0 -- -- 62
2019-07-29 03:00:00 17.6 5 Noroeste 9 Noroeste 0 -- -- 62
2019-07-29 02:00:00 20.3 7 Noroeste 12 Noroeste 0 -- -- 58
2019-07-29 01:00:00 22.1 8 Noroeste 16 Noroeste 0 -- -- 53
2019-07-29 00:00:00 24 12 Noroeste 26 Noroeste 0 -- -- 48
2019-07-28 23:00:00 25.8 12 Noroeste 22 Noroeste 0 -- -- 40
2019-07-28 22:00:00 27.5 11 Oeste 23 Sudoeste 0 -- -- 37
2019-07-28 21:00:00 29.7 12 Sudoeste 22 Oeste 0 -- -- 34
2019-07-28 20:00:00 31.5 9 Oeste 22 Oeste 0 -- -- 31
2019-07-28 19:00:00 32.1 14 Oeste 21 Oeste 0 -- -- 29
2019-07-28 18:00:00 31.8 6 Oeste 24 Oeste 0 -- -- 30
2019-07-28 17:00:00 31.7 11 Sudoeste 26 Oeste 0 -- -- 30
2019-07-28 16:00:00 31.2 11 Oeste 23 Noroeste 0 -- -- 33
2019-07-28 15:00:00 29.1 6 Sur 23 Sudoeste 0 -- -- 39
2019-07-28 14:00:00 28.7 12 Sudoeste 25 Oeste 0 -- -- 41
2019-07-28 13:00:00 26.9 9 Sudoeste 19 Sudoeste 0 -- -- 47
2019-07-28 12:00:00 25.3 8 Sudoeste 18 Sudoeste 0 -- -- 51
2019-07-28 11:00:00 23.6 6 Sudoeste 13 Sur 0 -- -- 57
2019-07-28 10:00:00 21.5 2 Sudoeste 10 Oeste 0 -- -- 65
2019-07-28 09:00:00 18.8 4 Oeste 8 Noroeste 0 -- -- 77
2019-07-28 08:00:00 15.6 3 Noroeste 11 Noroeste 0 -- -- 89
2019-07-28 07:00:00 14.4 5 Noroeste 10 Noroeste 0 -- -- 91
2019-07-28 06:00:00 14.5 3 Oeste 8 Oeste 0 -- -- 90
2019-07-28 05:00:00 15.4 4 Oeste 12 Oeste 0 -- -- 84
2019-07-28 04:00:00 16.8 10 Oeste 14 Noroeste 0 -- -- 81
2019-07-28 03:00:00 17.1 10 Noroeste 12 Oeste 0 -- -- 77
2019-07-28 02:00:00 17.6 9 Noroeste 10 Noroeste 0 -- -- 72
2019-07-28 01:00:00 16.9 5 Noroeste 9 Oeste 0 -- -- 71
2019-07-28 00:00:00 18.3 6 Noroeste 10 Noroeste 0 -- -- 65
2019-07-27 23:00:00 19.9 8 Noroeste 14 Oeste 0 -- -- 60
2019-07-26 12:00:00 -- -- -- -- -- -- -- -- --
2019-07-26 11:00:00 -- -- -- -- -- -- -- -- --
2019-07-26 10:00:00 -- -- -- -- -- -- -- -- --
2019-07-26 09:00:00 17 7 Noroeste 12 Noroeste -- -- -- 72
2019-07-26 08:00:00 14.9 7 Noroeste 14 Noroeste 0 -- -- 82
2019-07-26 07:00:00 14.8 11 Noroeste 20 Noroeste 0 -- -- 82
2019-07-26 06:00:00 15.8 8 Noroeste 14 Noroeste 0 -- -- 80
2019-07-26 05:00:00 17.2 8 Oeste 18 Oeste 0 -- -- 76
2019-07-26 04:00:00 18.7 13 Oeste 18 Oeste 0 -- -- 72
2019-07-26 03:00:00 20.7 8 Oeste 18 Noroeste 0 -- -- 66
2019-07-26 02:00:00 21.4 15 Noroeste 30 Noroeste 0 -- -- 66
2019-07-26 01:00:00 22 19 Noroeste 32 Noroeste 0 -- -- 68
2019-07-26 00:00:00 22.9 23 Noroeste 35 Noroeste 0 -- -- 68
2019-07-25 23:00:00 24.5 18 Noroeste 36 Noroeste 0 -- -- 64
2019-07-25 22:00:00 27.9 18 Noroeste 27 Oeste 0 -- -- 43
2019-07-25 21:00:00 28.9 15 Oeste 28 Oeste 0 -- -- 38
2019-07-25 20:00:00 31.6 21 Oeste 32 Oeste 0 -- -- 33
2019-07-25 19:00:00 32.8 20 Noroeste 37 Oeste 0 -- -- 28
2019-07-25 18:00:00 33.6 19 Oeste 36 Oeste 0 -- -- 24
2019-07-25 17:00:00 33.2 19 Oeste 32 Oeste 0 -- -- 31
2019-07-25 16:00:00 32.9 22 Oeste 34 Oeste 0 -- -- 32
2019-07-25 15:00:00 32 18 Sudoeste 32 Oeste 0 -- -- 36
2019-07-25 14:00:00 31.3 15 Sudoeste 34 Oeste 0 -- -- 37
2019-07-25 13:00:00 29.3 17 Oeste 25 Oeste 0 -- -- 42
2019-07-25 12:00:00 27.6 8 Sudoeste 16 Sudoeste 0 -- -- 50
2019-07-25 11:00:00 26.3 5 Sudoeste 17 Sudoeste 0 -- -- 53
2019-07-25 10:00:00 23.7 4 Oeste 13 Oeste 0 -- -- 62
2019-07-25 09:00:00 21.3 5 Noroeste 7 Oeste 0 -- -- 71
2019-07-25 08:00:00 17.8 3 Sudeste 8 Este 0 -- -- 76
2019-07-25 07:00:00 16.3 0 Calma 5 Este 0 -- -- 69
2019-07-25 06:00:00 18 2 Este 4 Este 0 -- -- 61
2019-07-25 05:00:00 18.8 2 Este 5 Norte 0 -- -- 54
2019-07-25 04:00:00 20.8 2 Este 10 Oeste 0 -- -- 49
2019-07-25 03:00:00 22.6 8 Oeste 14 Oeste 0 -- -- 45
2019-07-25 02:00:00 24.8 11 Noroeste 15 Noroeste 0 -- -- 40
2019-07-25 01:00:00 26.6 13 Noroeste 24 Noroeste 0 -- -- 37
2019-07-25 00:00:00 28.1 17 Noroeste 30 Noroeste 0 -- -- 37
2019-07-24 23:00:00 29.7 13 Noroeste 26 Noroeste 0 -- -- 29
2019-07-24 22:00:00 31.4 9 Noroeste 28 Oeste 0 -- -- 28
2019-07-24 21:00:00 34.5 20 Oeste 35 Oeste 0 -- -- 25
2019-07-24 20:00:00 36.2 15 Oeste 28 Oeste 0 -- -- 22
2019-07-24 19:00:00 36.8 15 Sudoeste 33 Oeste 0 -- -- 23
2019-07-24 18:00:00 37.4 9 Sudoeste 32 Oeste 0 -- -- 23
2019-07-24 17:00:00 37.4 13 Oeste 32 Sur 0 -- -- 23
2019-07-24 16:00:00 36.7 18 Sudoeste 27 Oeste 0 -- -- 24
2019-07-24 15:00:00 35.8 9 Sur 22 Oeste 0 -- -- 25
2019-07-24 14:00:00 34.8 11 Oeste 22 Oeste 0 -- -- 25
2019-07-24 13:00:00 33.3 11 Sudoeste 21 Sudoeste 0 -- -- 25
2019-07-24 12:00:00 31.9 10 Sudoeste 18 Sudoeste 0 -- -- 28
2019-07-24 11:00:00 30.6 4 Sur 12 Sudoeste 0 -- -- 29
2019-07-24 10:00:00 28 5 Sudeste 11 Sur 0 -- -- 37
2019-07-24 09:00:00 24.3 4 Sudeste 6 Sudeste 0 -- -- 47
2019-07-24 08:00:00 19.1 0 Calma 4 Este 0 -- -- 67
2019-07-24 07:00:00 19.3 4 Noroeste 7 Noroeste 0 -- -- 65
2019-07-24 06:00:00 20.3 3 Oeste 14 Noroeste 0 -- -- 63
2019-07-24 05:00:00 20.4 2 Sur 13 Sudeste 0 -- -- 58
2019-07-24 04:00:00 21.4 4 Sudeste 8 Este 0 -- -- 56
2019-07-24 03:00:00 23.2 5 Oeste 8 Oeste 0 -- -- 51
2019-07-24 02:00:00 24.9 4 Norte 12 Noroeste 0 -- -- 47
2019-07-24 01:00:00 25.3 9 Noroeste 13 Noroeste 0 -- -- 48
2019-07-24 00:00:00 27.2 6 Oeste 20 Noroeste 0 -- -- 41
2019-07-23 23:00:00 29 14 Noroeste 24 Noroeste 0 -- -- 41
2019-07-23 22:00:00 31.1 14 Noroeste 22 Noroeste 0 -- -- 36
2019-07-23 21:00:00 33.9 16 Noroeste 27 Oeste 0 -- -- 27
2019-07-23 20:00:00 35.1 17 Oeste 30 Sudoeste 0 -- -- 26
2019-07-23 19:00:00 36.1 17 Oeste 30 Oeste 0 -- -- 25
2019-07-23 18:00:00 36.4 14 Noroeste 29 Oeste 0 -- -- 27
2019-07-23 17:00:00 36 14 Oeste 28 Sudoeste 0 -- -- 26
2019-07-23 16:00:00 35.2 16 Sudoeste 33 Oeste 0 -- -- 27
2019-07-23 15:00:00 33.9 13 Sudoeste 28 Sudoeste 0 -- -- 32
2019-07-23 14:00:00 32.9 13 Sudoeste 24 Sur 0 -- -- 35
2019-07-23 13:00:00 31.8 12 Sur 24 Oeste 0 -- -- 37
2019-07-23 12:00:00 29.4 12 Oeste 19 Sudoeste 0 -- -- 41
2019-07-23 11:00:00 26.8 10 Sudoeste 18 Oeste 0 -- -- 45
2019-07-23 10:00:00 23.9 11 Oeste 17 Oeste 0 -- -- 56
2019-07-23 09:00:00 23 5 Sur 17 Sudoeste 0 -- -- 62
2019-07-23 08:00:00 20.6 2 Sudeste 11 Sudeste 0 -- -- 70
2019-07-23 07:00:00 20.2 5 Este 9 Sudeste 0 -- -- 68
2019-07-23 06:00:00 21.3 4 Sudeste 10 Este 0 -- -- 68
2019-07-23 05:00:00 22.9 5 Sur 12 Norte 0 -- -- 61
2019-07-23 04:00:00 23.7 3 Nordeste 9 Sudeste 0 -- -- 59
2019-07-23 03:00:00 25.8 6 Oeste 14 Oeste 0 -- -- 53
2019-07-23 02:00:00 27.9 9 Oeste 17 Norte 0 -- -- 48
2019-07-23 01:00:00 29.6 14 Norte 22 Norte 0 -- -- 44
2019-07-23 00:00:00 30.6 13 Noroeste 28 Noroeste 0 -- -- 34
2019-07-22 23:00:00 31.9 16 Noroeste 28 Norte 0 -- -- 29
2019-07-22 22:00:00 33.1 9 Noroeste 15 Oeste 0 -- -- 24
2019-07-22 21:00:00 36.7 8 Oeste 21 Oeste 0 -- -- 23
2019-07-22 20:00:00 38.2 9 Oeste 26 Sudoeste 0 -- -- 21
2019-07-22 19:00:00 38.5 13 Oeste 29 Oeste 0 -- -- 21
2019-07-22 18:00:00 38.5 14 Sudoeste 26 Sudoeste 0 -- -- 21
2019-07-22 17:00:00 38.8 9 Sur 22 Sudoeste 0 -- -- 21
2019-07-22 16:00:00 38 14 Sudoeste 28 Sudoeste 0 -- -- 22
2019-07-22 15:00:00 37.2 15 Sudoeste 28 Sur 0 -- -- 23
2019-07-22 14:00:00 36.8 10 Oeste 20 Oeste 0 -- -- 24
2019-07-22 13:00:00 35.2 6 Sur 15 Sur 0 -- -- 25
2019-07-22 12:00:00 32.8 9 Sur 15 Sur 0 -- -- 30
2019-07-22 11:00:00 29.6 5 Oeste 14 Oeste 0 -- -- 34
2019-07-22 10:00:00 27.2 7 Oeste 17 Oeste 0 -- -- 41
2019-07-22 09:00:00 23.4 4 Noroeste 10 Noroeste 0 -- -- 46
2019-07-22 08:00:00 20 2 Nordeste 5 Sudeste 0 -- -- 51
2019-07-22 07:00:00 19.5 0 Calma 6 Sudeste 0 -- -- 50
2019-07-22 06:00:00 21 4 Sudeste 8 Sudeste 0 -- -- 44
2019-07-22 05:00:00 23.2 3 Sudoeste 9 Oeste 0 -- -- 38
2019-07-22 04:00:00 25.8 6 Oeste 17 Noroeste 0 -- -- 34
2019-07-22 03:00:00 25.4 6 Noroeste 10 Noroeste 0 -- -- 35
2019-07-22 02:00:00 26.3 7 Noroeste 14 Noroeste 0 -- -- 44
2019-07-22 01:00:00 26.3 8 Noroeste 13 Noroeste 0 -- -- 45
2019-07-22 00:00:00 28.2 10 Noroeste 17 Noroeste 0 -- -- 41
2019-07-21 23:00:00 29.2 10 Noroeste 14 Noroeste 0 -- -- 24
2019-07-21 22:00:00 31.7 9 Oeste 12 Oeste 0 -- -- 19
2019-07-21 21:00:00 35.5 10 Noroeste 18 Noroeste 0 -- -- 16
2019-07-21 20:00:00 37.1 11 Oeste 20 Oeste 0 -- -- 16
2019-07-21 19:00:00 37.8 9 Noroeste 20 Oeste 0 -- -- 14
2019-07-21 18:00:00 38.3 7 Norte 22 Oeste 0 -- -- 14
2019-07-21 17:00:00 38 11 Oeste 27 Sudoeste 0 -- -- 16
2019-07-21 16:00:00 36.4 13 Sudoeste 26 Oeste 0 -- -- 18
2019-07-21 15:00:00 35.1 13 Sudoeste 21 Sur 0 -- -- 19
2019-07-21 14:00:00 35.1 8 Oeste 16 Oeste 0 -- -- 22
2019-07-21 13:00:00 33.5 6 Sudoeste 14 Sudoeste 0 -- -- 30
2019-07-21 12:00:00 30.5 3 Este 9 Este 0 -- -- 39
2019-07-21 11:00:00 27.4 0 Calma 7 Este 0 -- -- 45
2019-07-21 10:00:00 24.3 2 Nordeste 5 Sudeste 0 -- -- 52
2019-07-21 09:00:00 19.2 2 Sudeste 4 Este 0 -- -- 67
2019-07-21 08:00:00 15.9 4 Sudeste 7 Este 0 -- -- 78
2019-07-21 07:00:00 16.1 6 Sudeste 9 Este 0 -- -- 78
2019-07-21 06:00:00 18.5 4 Sudeste 13 Oeste 0 -- -- 69
2019-07-21 05:00:00 20.9 9 Noroeste 16 Oeste 0 -- -- 63
2019-07-21 04:00:00 21.6 12 Noroeste 16 Oeste 0 -- -- 61
2019-07-21 03:00:00 21.8 11 Oeste 13 Oeste 0 -- -- 61
2019-07-21 02:00:00 23.3 6 Oeste 14 Noroeste 0 -- -- 56
2019-07-21 01:00:00 25.3 11 Noroeste 21 Noroeste 0 -- -- 51
2019-07-21 00:00:00 26.7 15 Noroeste 28 Noroeste 0 -- -- 47